Time;durP1;ratioP1;P1;durP2;ratioP2;P2;SDS_P1;SDS_P2;PMS_P1;PMS_P2;Temp;Humidity;BMP_temperature;BMP_pressure;BME280_temperature;BME280_humidity;BME280_pressure;Samples;Min_cycle;Max_cycle;Signal;HPM_P1;HPM_P2
2023/04/11 00:01:45;;;;;;;;;;;10.50;60.10;;;;;;4066707;29;19943;-85
2023/04/11 00:04:06;;;;;;;;;;;10.50;60.50;;;;;;4060216;29;20379;-85
2023/04/11 00:06:27;;;;;;;;;;;10.50;60.40;;;;;;4071363;29;20047;-85
2023/04/11 00:08:47;;;;;;;;;;;10.50;60.50;;;;;;4068397;29;20385;-85
2023/04/11 00:10:48;;;;;;;;;;;10.40;60.50;;;;;;4059556;29;19960;-85
2023/04/11 00:12:48;;;;;;;;;;;10.40;60.70;;;;;;4059245;29;19919;-84
2023/04/11 00:14:52;;;;;;;;;;;10.50;61.40;;;;;;4074265;29;20058;-85
2023/04/11 00:16:53;;;;;;;;;;;10.40;61.10;;;;;;4079006;28;19915;-88
2023/04/11 00:18:55;;;;;;;;;;;10.40;61.40;;;;;;4046376;29;19946;-84
2023/04/11 00:20:56;;;;;;;;;;;10.40;61.30;;;;;;4073700;29;19982;-85
2023/04/11 00:22:57;;;;;;;;;;;10.40;61.60;;;;;;4056167;29;20380;-86
2023/04/11 00:24:57;;;;;;;;;;;10.30;61.80;;;;;;4056179;29;19919;-86
2023/04/11 00:26:58;;;;;;;;;;;10.30;61.80;;;;;;4061028;29;20333;-86
2023/04/11 00:28:59;;;;;;;;;;;10.30;62.30;;;;;;4047116;29;19915;-85
2023/04/11 00:31:01;;;;;;;;;;;10.30;62.00;;;;;;4064715;29;19916;-84
2023/04/11 00:33:07;;;;;;;;;;;10.30;62.10;;;;;;4047878;29;20183;-85
2023/04/11 00:35:08;;;;;;;;;;;10.20;62.10;;;;;;4072991;29;19925;-85
2023/04/11 00:37:09;;;;;;;;;;;10.20;62.30;;;;;;4068392;29;20006;-86
2023/04/11 00:39:12;;;;;;;;;;;10.30;62.20;;;;;;4046725;29;20278;-86
2023/04/11 00:41:13;;;;;;;;;;;10.20;62.40;;;;;;4082340;29;19907;-85
2023/04/11 00:43:34;;;;;;;;;;;10.20;62.40;;;;;;4065086;29;19914;-88
2023/04/11 00:45:55;;;;;;;;;;;10.20;62.60;;;;;;4063435;29;19930;-85
2023/04/11 00:48:15;;;;;;;;;;;10.20;62.80;;;;;;4053696;29;19954;-86
2023/04/11 00:50:40;;;;;;;;;;;10.20;63.20;;;;;;4060795;29;19911;-85
2023/04/11 00:52:41;;;;;;;;;;;10.10;62.90;;;;;;4064231;29;19911;-85
2023/04/11 00:54:42;;;;;;;;;;;10.20;62.90;;;;;;4064329;29;19930;-85
2023/04/11 00:56:42;;;;;;;;;;;10.10;63.20;;;;;;4046081;29;20046;-86
2023/04/11 00:58:46;;;;;;;;;;;10.10;63.10;;;;;;4044591;29;19916;-87
2023/04/11 01:00:50;;;;;;;;;;;10.10;63.20;;;;;;4062270;29;20034;-85
2023/04/11 01:02:51;;;;;;;;;;;10.10;63.40;;;;;;4047841;29;20014;-86
2023/04/11 01:04:52;;;;;;;;;;;10.10;63.50;;;;;;4062512;29;20294;-86
2023/04/11 01:06:55;;;;;;;;;;;10.10;64.70;;;;;;4062407;29;19919;-85
2023/04/11 01:08:56;;;;;;;;;;;10.00;64.80;;;;;;4076010;29;19966;-85
2023/04/11 01:10:57;;;;;;;;;;;10.00;64.20;;;;;;4073589;29;20060;-86
2023/04/11 01:13:18;;;;;;;;;;;10.00;64.30;;;;;;4063111;29;19919;-85
2023/04/11 01:15:18;;;;;;;;;;;10.00;64.70;;;;;;4076709;29;19920;-86
2023/04/11 01:17:40;;;;;;;;;;;9.90;64.40;;;;;;4077556;29;20220;-86
2023/04/11 01:20:01;;;;;;;;;;;9.90;64.90;;;;;;4076463;29;19986;-85
2023/04/11 01:22:21;;;;;;;;;;;9.90;64.80;;;;;;4058605;29;19990;-85
2023/04/11 01:24:42;;;;;;;;;;;9.90;65.50;;;;;;4060726;29;19926;-86
2023/04/11 01:27:03;;;;;;;;;;;9.90;65.40;;;;;;4055257;29;19919;-85
2023/04/11 01:29:23;;;;;;;;;;;9.90;65.10;;;;;;4053405;29;19919;-85
2023/04/11 01:31:45;;;;;;;;;;;9.90;65.10;;;;;;4072661;29;20041;-85
2023/04/11 01:34:06;;;;;;;;;;;9.80;65.10;;;;;;4071506;29;19947;-86
2023/04/11 01:36:27;;;;;;;;;;;9.90;65.30;;;;;;4060392;29;19919;-85
2023/04/11 01:38:27;;;;;;;;;;;9.80;65.40;;;;;;4075756;29;20365;-86
2023/04/11 01:40:31;;;;;;;;;;;9.80;65.40;;;;;;4048653;29;19915;-85
2023/04/11 01:42:32;;;;;;;;;;;9.80;65.60;;;;;;4065745;29;19918;-85
2023/04/11 01:44:34;;;;;;;;;;;9.80;65.50;;;;;;4062546;29;19955;-85
2023/04/11 01:46:34;;;;;;;;;;;9.80;65.50;;;;;;4063762;29;19915;-85
2023/04/11 01:48:35;;;;;;;;;;;9.80;65.70;;;;;;4065649;29;19949;-85
2023/04/11 01:50:36;;;;;;;;;;;9.80;65.70;;;;;;4051871;29;19915;-86
2023/04/11 01:52:37;;;;;;;;;;;9.80;65.80;;;;;;4067019;29;19910;-86
2023/04/11 01:54:38;;;;;;;;;;;9.80;65.60;;;;;;4048220;29;19907;-85
2023/04/11 01:56:39;;;;;;;;;;;9.80;65.80;;;;;;4063219;29;20017;-86
2023/04/11 01:58:40;;;;;;;;;;;9.80;65.60;;;;;;4068554;29;19915;-85
2023/04/11 02:01:00;;;;;;;;;;;9.80;65.90;;;;;;4064250;29;19907;-85
2023/04/11 02:03:21;;;;;;;;;;;9.80;66.80;;;;;;4061797;29;19915;-85
2023/04/11 02:05:42;;;;;;;;;;;9.80;66.60;;;;;;4062815;29;20393;-85
2023/04/11 02:08:02;;;;;;;;;;;9.70;66.20;;;;;;4072769;29;21489;-85
2023/04/11 02:10:23;;;;;;;;;;;9.70;66.20;;;;;;4060354;29;19933;-85
2023/04/11 02:12:43;;;;;;;;;;;9.70;66.20;;;;;;4061441;29;19949;-85
2023/04/11 02:15:05;;;;;;;;;;;9.70;66.60;;;;;;4076014;29;20034;-84
2023/04/11 02:17:29;;;;;;;;;;;9.70;66.40;;;;;;4058190;29;19941;-84
2023/04/11 02:19:50;;;;;;;;;;;9.80;66.40;;;;;;4058535;29;19915;-86
2023/04/11 02:22:11;;;;;;;;;;;9.70;66.30;;;;;;4060923;29;19918;-85
2023/04/11 02:24:32;;;;;;;;;;;9.70;66.20;;;;;;4060332;29;19915;-85
2023/04/11 02:26:33;;;;;;;;;;;9.70;66.20;;;;;;4058982;29;20002;-85
2023/04/11 02:28:35;;;;;;;;;;;9.60;66.70;;;;;;4060630;29;19912;-86
2023/04/11 02:30:38;;;;;;;;;;;9.70;67.40;;;;;;4060029;29;19958;-85
2023/04/11 02:32:39;;;;;;;;;;;9.60;66.50;;;;;;4059329;29;19911;-85
2023/04/11 02:34:40;;;;;;;;;;;9.60;66.90;;;;;;4057661;29;19963;-84
2023/04/11 02:36:44;;;;;;;;;;;9.60;67.20;;;;;;4059967;29;19955;-84
2023/04/11 02:38:48;;;;;;;;;;;9.60;67.20;;;;;;4073946;29;19998;-85
2023/04/11 02:40:51;;;;;;;;;;;9.70;67.40;;;;;;4073859;29;20005;-85
2023/04/11 02:42:52;;;;;;;;;;;9.70;67.30;;;;;;4056158;29;19962;-86
2023/04/11 02:44:53;;;;;;;;;;;9.60;67.50;;;;;;4057405;29;19941;-85
2023/04/11 02:46:54;;;;;;;;;;;9.50;67.20;;;;;;4072869;29;20070;-85
2023/04/11 02:49:15;;;;;;;;;;;9.60;67.30;;;;;;4059984;29;20050;-84
2023/04/11 02:51:35;;;;;;;;;;;9.50;67.30;;;;;;4055262;29;19911;-85
2023/04/11 02:53:56;;;;;;;;;;;9.50;67.20;;;;;;4059352;29;20018;-85
2023/04/11 02:56:18;;;;;;;;;;;9.50;67.20;;;;;;4060115;29;19919;-85
2023/04/11 02:58:40;;;;;;;;;;;9.50;67.70;;;;;;4070730;29;19942;-85
2023/04/11 03:01:02;;;;;;;;;;;9.50;67.50;;;;;;4061051;29;19950;-85
2023/04/11 03:03:22;;;;;;;;;;;9.40;67.50;;;;;;4060116;29;19919;-85
2023/04/11 03:05:43;;;;;;;;;;;9.50;68.30;;;;;;4057006;29;20014;-85
2023/04/11 03:08:03;;;;;;;;;;;9.40;67.60;;;;;;4058634;29;19919;-84
2023/04/11 03:10:24;;;;;;;;;;;9.40;68.10;;;;;;4060556;29;19915;-84
2023/04/11 03:12:44;;;;;;;;;;;9.40;67.90;;;;;;4070162;29;19922;-85
2023/04/11 03:15:05;;;;;;;;;;;9.30;67.90;;;;;;4059608;29;19998;-85
2023/04/11 03:17:26;;;;;;;;;;;9.30;67.70;;;;;;4056146;29;19922;-85
2023/04/11 03:19:46;;;;;;;;;;;9.40;67.80;;;;;;4060157;29;19942;-85
2023/04/11 03:22:09;;;;;;;;;;;9.30;68.00;;;;;;4060348;29;19973;-85
2023/04/11 03:24:31;;;;;;;;;;;9.30;67.90;;;;;;4057706;29;19930;-85
2023/04/11 03:26:51;;;;;;;;;;;9.30;68.70;;;;;;4052947;29;19911;-85
2023/04/11 03:29:12;;;;;;;;;;;9.30;68.00;;;;;;4059024;29;20002;-85
2023/04/11 03:31:32;;;;;;;;;;;9.30;68.30;;;;;;4059433;29;20010;-85
2023/04/11 03:33:33;;;;;;;;;;;9.30;68.10;;;;;;4060378;29;19922;-85
2023/04/11 03:35:34;;;;;;;;;;;9.30;68.20;;;;;;4059805;29;19935;-85
2023/04/11 03:37:35;;;;;;;;;;;9.30;68.10;;;;;;4072230;29;19915;-84
2023/04/11 03:39:35;;;;;;;;;;;9.30;68.00;;;;;;4056298;29;19915;-85
2023/04/11 03:41:36;;;;;;;;;;;9.30;68.20;;;;;;4058825;29;19915;-86
2023/04/11 03:43:37;;;;;;;;;;;9.30;68.50;;;;;;4060465;29;19930;-85
2023/04/11 03:45:42;;;;;;;;;;;9.30;69.40;;;;;;4062725;29;19918;-85
2023/04/11 03:47:42;;;;;;;;;;;9.30;69.20;;;;;;4063564;29;20445;-85
2023/04/11 03:50:03;;;;;;;;;;;9.30;69.40;;;;;;4058416;29;19973;-85
2023/04/11 03:52:05;;;;;;;;;;;9.30;69.30;;;;;;4070037;29;19911;-84
2023/04/11 03:54:25;;;;;;;;;;;9.30;69.10;;;;;;4059995;29;19995;-86
2023/04/11 03:56:46;;;;;;;;;;;9.30;69.00;;;;;;4056600;29;20857;-86
2023/04/11 03:59:07;;;;;;;;;;;9.30;69.30;;;;;;4061043;29;19965;-85
2023/04/11 04:01:07;;;;;;;;;;;9.30;69.10;;;;;;4064077;29;19911;-85
2023/04/11 04:03:08;;;;;;;;;;;9.30;69.10;;;;;;4058358;29;19916;-85
2023/04/11 04:05:08;;;;;;;;;;;9.30;69.70;;;;;;4062057;29;20013;-84
2023/04/11 04:07:09;;;;;;;;;;;9.30;69.80;;;;;;4062791;29;19926;-85
2023/04/11 04:09:11;;;;;;;;;;;9.30;69.70;;;;;;4064913;29;20969;-85
2023/04/11 04:11:12;;;;;;;;;;;9.30;69.40;;;;;;4047909;29;19911;-84
2023/04/11 04:13:12;;;;;;;;;;;9.30;69.30;;;;;;4067033;29;20010;-84
2023/04/11 04:15:13;;;;;;;;;;;9.30;69.20;;;;;;4063545;29;19996;-88
2023/04/11 04:17:15;;;;;;;;;;;9.30;69.70;;;;;;4077878;29;19923;-85
2023/04/11 04:19:15;;;;;;;;;;;9.30;69.70;;;;;;4063267;29;19993;-86
2023/04/11 04:21:18;;;;;;;;;;;9.30;69.50;;;;;;4059237;29;19918;-86
2023/04/11 04:23:46;;;;;;;;;;;9.30;69.00;;;;;;4060611;29;19918;-85
2023/04/11 04:26:12;;;;;;;;;;;9.40;68.90;;;;;;4060299;29;20254;-86
2023/04/11 04:28:35;;;;;;;;;;;9.40;69.30;;;;;;4064452;29;19938;-85
2023/04/11 04:30:56;;;;;;;;;;;9.40;69.70;;;;;;4064009;29;19995;-85
2023/04/11 04:33:19;;;;;;;;;;;9.40;69.80;;;;;;4061051;29;19915;-86
2023/04/11 04:35:24;;;;;;;;;;;9.30;69.10;;;;;;4072921;29;19925;-86
2023/04/11 04:37:45;;;;;;;;;;;9.30;69.20;;;;;;4068658;29;19915;-85
2023/04/11 04:40:06;;;;;;;;;;;9.40;69.40;;;;;;4059903;29;19943;-85
2023/04/11 04:42:27;;;;;;;;;;;9.30;68.90;;;;;;4063151;29;19919;-85
2023/04/11 04:44:48;;;;;;;;;;;9.30;68.70;;;;;;4065131;29;19915;-85
2023/04/11 04:47:09;;;;;;;;;;;9.40;68.50;;;;;;4060705;29;19919;-85
2023/04/11 04:49:30;;;;;;;;;;;9.40;68.50;;;;;;4063492;29;19999;-85
2023/04/11 04:51:50;;;;;;;;;;;9.30;69.90;;;;;;4062051;29;20002;-85
2023/04/11 04:54:11;;;;;;;;;;;9.30;69.90;;;;;;4058404;29;19961;-85
2023/04/11 04:56:31;;;;;;;;;;;9.40;70.00;;;;;;4055706;29;19957;-86
2023/04/11 04:58:52;;;;;;;;;;;9.30;70.40;;;;;;4061998;29;19971;-86
2023/04/11 05:01:13;;;;;;;;;;;9.30;70.50;;;;;;4060901;29;19951;-86
2023/04/11 05:03:15;;;;;;;;;;;9.30;70.10;;;;;;4058743;29;19926;-86
2023/04/11 05:05:16;;;;;;;;;;;9.30;70.10;;;;;;4058183;29;20578;-86
2023/04/11 05:07:17;;;;;;;;;;;9.30;70.30;;;;;;4058172;29;19911;-86
2023/04/11 05:09:17;;;;;;;;;;;9.20;69.90;;;;;;4050204;29;19915;-85
2023/04/11 05:11:38;;;;;;;;;;;9.20;70.00;;;;;;4059990;29;19974;-86
2023/04/11 05:13:40;;;;;;;;;;;9.30;71.00;;;;;;4073588;29;19961;-85
2023/04/11 05:16:01;;;;;;;;;;;9.30;71.30;;;;;;4058224;29;19915;-85
2023/04/11 05:18:21;;;;;;;;;;;9.20;71.00;;;;;;4061954;29;19922;-85
2023/04/11 05:20:30;;;;;;;;;;;9.30;71.40;;;;;;4073579;29;19961;-86
2023/04/11 05:22:52;;;;;;;;;;;9.30;71.00;;;;;;4069642;29;19922;-85
2023/04/11 05:25:12;;;;;;;;;;;9.20;70.60;;;;;;4060157;29;20013;-85
2023/04/11 05:27:33;;;;;;;;;;;9.20;70.50;;;;;;4059629;29;20014;-85
2023/04/11 05:29:53;;;;;;;;;;;9.10;70.20;;;;;;4060103;29;20019;-85
2023/04/11 05:32:14;;;;;;;;;;;9.20;70.30;;;;;;4073418;29;19946;-85
2023/04/11 05:34:49;;;;;;;;;;;9.10;70.20;;;;;;4061594;29;20468;-85
2023/04/11 05:37:09;;;;;;;;;;;9.10;70.20;;;;;;4062887;29;19918;-85
2023/04/11 05:39:30;;;;;;;;;;;9.10;70.20;;;;;;4061118;29;19919;-85
2023/04/11 05:41:50;;;;;;;;;;;9.10;69.80;;;;;;4074369;29;19911;-85
2023/04/11 05:44:11;;;;;;;;;;;9.00;70.00;;;;;;4060664;29;19923;-84
2023/04/11 05:46:12;;;;;;;;;;;9.00;70.30;;;;;;4063473;29;20456;-85
2023/04/11 05:48:13;;;;;;;;;;;9.10;70.50;;;;;;4061794;29;19930;-85
2023/04/11 05:50:14;;;;;;;;;;;9.00;71.00;;;;;;4061972;29;19914;-85
2023/04/11 05:52:18;;;;;;;;;;;9.00;70.90;;;;;;4058406;29;19947;-85
2023/04/11 05:54:39;;;;;;;;;;;9.00;71.50;;;;;;4058699;29;19933;-86
2023/04/11 05:57:00;;;;;;;;;;;9.00;71.50;;;;;;4059392;29;20018;-84
2023/04/11 05:59:22;;;;;;;;;;;8.90;71.00;;;;;;4057870;29;19911;-84
2023/04/11 06:01:43;;;;;;;;;;;8.90;71.80;;;;;;4056217;29;19925;-85
2023/04/11 06:04:03;;;;;;;;;;;8.90;72.10;;;;;;4063481;29;19938;-85
2023/04/11 06:06:24;;;;;;;;;;;8.90;71.70;;;;;;4057468;29;19958;-86
2023/04/11 06:08:26;;;;;;;;;;;8.90;72.00;;;;;;4059956;29;20305;-84
2023/04/11 06:10:47;;;;;;;;;;;8.90;71.70;;;;;;4074619;29;19913;-85
2023/04/11 06:13:07;;;;;;;;;;;8.90;71.90;;;;;;4065704;29;20021;-86
2023/04/11 06:15:28;;;;;;;;;;;8.80;72.00;;;;;;4060312;29;19918;-85
2023/04/11 06:17:48;;;;;;;;;;;8.80;71.60;;;;;;4054658;29;20014;-86
2023/04/11 06:20:09;;;;;;;;;;;8.90;70.90;;;;;;4055738;29;20002;-85
2023/04/11 06:22:30;;;;;;;;;;;8.80;70.70;;;;;;4056254;29;19951;-84
2023/04/11 06:24:50;;;;;;;;;;;8.80;70.80;;;;;;4066934;29;19965;-85
2023/04/11 06:27:11;;;;;;;;;;;8.80;70.70;;;;;;4056858;29;19946;-85
2023/04/11 06:29:31;;;;;;;;;;;8.90;70.90;;;;;;4058525;29;19959;-86
2023/04/11 06:31:52;;;;;;;;;;;8.80;70.50;;;;;;4057656;29;19926;-85
2023/04/11 06:33:55;;;;;;;;;;;8.80;70.20;;;;;;4061020;29;19922;-86
2023/04/11 06:35:56;;;;;;;;;;;8.80;70.50;;;;;;4061318;29;19914;-86
2023/04/11 06:37:56;;;;;;;;;;;8.90;70.70;;;;;;4060031;29;20100;-85
2023/04/11 06:39:58;;;;;;;;;;;8.80;70.30;;;;;;4078304;29;20451;-85
2023/04/11 06:41:59;;;;;;;;;;;8.80;70.60;;;;;;4064067;29;19911;-85
2023/04/11 06:43:59;;;;;;;;;;;8.80;70.80;;;;;;4062123;29;20289;-86
2023/04/11 06:46:00;;;;;;;;;;;8.80;70.50;;;;;;4054282;29;20449;-85
2023/04/11 06:48:01;;;;;;;;;;;8.80;70.60;;;;;;4077297;29;20405;-85
2023/04/11 06:50:01;;;;;;;;;;;8.80;70.70;;;;;;4057116;29;19911;-84
2023/04/11 06:52:02;;;;;;;;;;;8.80;70.70;;;;;;4057817;29;20014;-86
2023/04/11 06:54:03;;;;;;;;;;;8.80;70.70;;;;;;4061404;29;19957;-86
2023/04/11 06:56:05;;;;;;;;;;;8.90;71.00;;;;;;4042456;29;19915;-85
2023/04/11 06:58:07;;;;;;;;;;;8.80;70.70;;;;;;4057710;29;19926;-85
2023/04/11 07:00:11;;;;;;;;;;;8.90;70.90;;;;;;4062306;29;19922;-85
2023/04/11 07:02:11;;;;;;;;;;;8.90;70.80;;;;;;4056662;29;20016;-85
2023/04/11 07:04:13;;;;;;;;;;;8.90;71.00;;;;;;4055973;29;19929;-86
2023/04/11 07:06:13;;;;;;;;;;;9.00;71.20;;;;;;4059991;29;19992;-85
2023/04/11 07:08:14;;;;;;;;;;;8.90;70.90;;;;;;4061700;29;19918;-84
2023/04/11 07:10:24;;;;;;;;;;;8.90;70.50;;;;;;4058361;29;19923;-85
2023/04/11 07:12:44;;;;;;;;;;;8.90;70.70;;;;;;4057430;29;19911;-84
2023/04/11 07:15:05;;;;;;;;;;;8.90;70.80;;;;;;4061921;29;19966;-85
2023/04/11 07:17:26;;;;;;;;;;;8.90;70.80;;;;;;4062020;29;19919;-83
2023/04/11 07:19:47;;;;;;;;;;;9.00;71.30;;;;;;4068188;29;19926;-85
2023/04/11 07:22:07;;;;;;;;;;;9.00;71.50;;;;;;4063875;29;19986;-84
2023/04/11 07:24:29;;;;;;;;;;;9.10;71.90;;;;;;4064152;29;20013;-83
2023/04/11 07:26:50;;;;;;;;;;;9.10;72.00;;;;;;4063493;29;19911;-85
2023/04/11 07:29:10;;;;;;;;;;;9.10;72.00;;;;;;4070604;29;19950;-85
2023/04/11 07:31:30;;;;;;;;;;;9.00;71.70;;;;;;4055296;29;19915;-85
2023/04/11 07:33:51;;;;;;;;;;;9.00;71.60;;;;;;4056909;29;19967;-84
2023/04/11 07:36:12;;;;;;;;;;;9.00;71.60;;;;;;4057285;29;19919;-85
2023/04/11 07:38:33;;;;;;;;;;;9.10;71.50;;;;;;4068439;29;20010;-85
2023/04/11 07:40:58;;;;;;;;;;;9.10;71.40;;;;;;4057010;29;20071;-85
2023/04/11 07:43:18;;;;;;;;;;;9.10;71.20;;;;;;4064232;29;20426;-85
2023/04/11 07:45:40;;;;;;;;;;;9.10;71.40;;;;;;4053562;29;19964;-85
2023/04/11 07:48:01;;;;;;;;;;;9.10;71.00;;;;;;4056191;29;19926;-85
2023/04/11 07:50:21;;;;;;;;;;;9.30;71.10;;;;;;4056000;29;19963;-85
2023/04/11 07:52:42;;;;;;;;;;;9.20;71.30;;;;;;4059871;29;19923;-85
2023/04/11 07:55:03;;;;;;;;;;;9.20;71.10;;;;;;4054061;29;19970;-85
2023/04/11 07:57:23;;;;;;;;;;;9.30;71.90;;;;;;4060278;29;19911;-86
2023/04/11 07:59:24;;;;;;;;;;;9.30;71.30;;;;;;4071452;29;19935;-88
2023/04/11 08:01:25;;;;;;;;;;;9.30;71.30;;;;;;4070590;28;20676;-85
2023/04/11 08:03:26;;;;;;;;;;;9.40;71.60;;;;;;4038925;29;19962;-85
2023/04/11 08:05:27;;;;;;;;;;;9.40;71.40;;;;;;4060056;29;19957;-85
2023/04/11 08:07:28;;;;;;;;;;;9.40;71.50;;;;;;4052899;29;19915;-84
2023/04/11 08:09:29;;;;;;;;;;;9.50;71.90;;;;;;4070221;29;20282;-85
2023/04/11 08:11:29;;;;;;;;;;;9.50;71.90;;;;;;4053653;29;19920;-85
2023/04/11 08:13:30;;;;;;;;;;;9.60;71.80;;;;;;4054411;29;19911;-85
2023/04/11 08:15:33;;;;;;;;;;;9.50;71.80;;;;;;4051882;29;20002;-85
2023/04/11 08:17:37;;;;;;;;;;;9.60;71.90;;;;;;4057313;29;19994;-84
2023/04/11 08:19:57;;;;;;;;;;;9.60;71.60;;;;;;4054849;29;21479;-85
2023/04/11 08:21:58;;;;;;;;;;;9.60;71.80;;;;;;4058476;29;20050;-84
2023/04/11 08:24:19;;;;;;;;;;;9.70;72.10;;;;;;4053744;29;19919;-85
2023/04/11 08:26:26;;;;;;;;;;;9.60;72.00;;;;;;4069174;28;19946;-84
2023/04/11 08:28:47;;;;;;;;;;;9.80;72.00;;;;;;4054197;29;19915;-84
2023/04/11 08:31:04;;;;;;;;;;;9.70;72.00;;;;;;4069169;29;19954;-85
2023/04/11 08:33:25;;;;;;;;;;;9.80;72.10;;;;;;4057666;29;20147;-85
2023/04/11 08:35:45;;;;;;;;;;;9.80;72.10;;;;;;4056138;29;19921;-85
2023/04/11 08:38:06;;;;;;;;;;;9.90;72.10;;;;;;4063217;29;19975;-85
2023/04/11 08:40:27;;;;;;;;;;;9.90;71.90;;;;;;4057408;29;20066;-85
2023/04/11 08:42:35;;;;;;;;;;;9.90;71.70;;;;;;4056752;29;20296;-85
2023/04/11 08:44:57;;;;;;;;;;;10.00;71.50;;;;;;4062563;29;19915;-85
2023/04/11 08:47:17;;;;;;;;;;;9.90;71.20;;;;;;4056340;29;19966;-85
2023/04/11 08:49:38;;;;;;;;;;;9.90;71.20;;;;;;4055575;29;19919;-86
2023/04/11 08:51:59;;;;;;;;;;;10.00;71.10;;;;;;4057254;29;19915;-85
2023/04/11 08:54:19;;;;;;;;;;;10.00;71.10;;;;;;4069315;29;20083;-85
2023/04/11 08:56:40;;;;;;;;;;;9.90;71.00;;;;;;4058099;29;19918;-85
2023/04/11 08:59:01;;;;;;;;;;;9.90;70.80;;;;;;4057834;29;19967;-85
2023/04/11 09:01:25;;;;;;;;;;;10.00;71.00;;;;;;4054171;29;20013;-85
2023/04/11 09:03:25;;;;;;;;;;;10.00;70.70;;;;;;4071327;29;20001;-85
2023/04/11 09:05:30;;;;;;;;;;;10.10;70.90;;;;;;4058547;29;20124;-86
2023/04/11 09:07:46;;;;;;;;;;;10.10;70.90;;;;;;4059090;29;19922;-85
2023/04/11 09:10:16;;;;;;;;;;;10.10;70.50;;;;;;4073221;29;19911;-84
2023/04/11 09:12:29;;;;;;;;;;;10.10;70.00;;;;;;4073269;29;19911;-85
2023/04/11 09:14:49;;;;;;;;;;;10.10;70.00;;;;;;4072067;29;19930;-85
2023/04/11 09:17:16;;;;;;;;;;;10.10;69.90;;;;;;4070058;29;19914;-85
2023/04/11 09:19:27;;;;;;;;;;;10.10;70.10;;;;;;4074209;29;19911;-85
2023/04/11 09:21:48;;;;;;;;;;;10.10;70.10;;;;;;4069609;29;20136;-84
2023/04/11 09:24:13;;;;;;;;;;;10.10;70.00;;;;;;4061568;29;19923;-84
2023/04/11 09:26:33;;;;;;;;;;;10.20;69.80;;;;;;4057673;29;19919;-85
2023/04/11 09:28:41;;;;;;;;;;;10.20;69.70;;;;;;4061961;29;20381;-85
2023/04/11 09:31:02;;;;;;;;;;;10.20;69.70;;;;;;4059292;29;19914;-85
2023/04/11 09:33:24;;;;;;;;;;;10.20;69.90;;;;;;4060178;29;19922;-87
2023/04/11 09:35:46;;;;;;;;;;;10.20;69.60;;;;;;4063118;29;19917;-86
2023/04/11 09:38:08;;;;;;;;;;;10.20;69.70;;;;;;4062537;29;20059;-85
2023/04/11 09:40:32;;;;;;;;;;;10.30;69.70;;;;;;4061280;29;19954;-84
2023/04/11 09:42:59;;;;;;;;;;;10.30;68.90;;;;;;4073180;29;19986;-85
2023/04/11 09:45:21;;;;;;;;;;;10.20;68.00;;;;;;4058097;29;19966;-85
2023/04/11 09:47:42;;;;;;;;;;;10.20;67.60;;;;;;4063819;29;19919;-84
2023/04/11 09:49:43;;;;;;;;;;;10.20;67.50;;;;;;4075204;29;20019;-84
2023/04/11 09:51:44;;;;;;;;;;;10.10;67.60;;;;;;4056263;29;19914;-85
2023/04/11 09:53:45;;;;;;;;;;;10.20;67.60;;;;;;4060074;29;19911;-85
2023/04/11 09:55:46;;;;;;;;;;;10.00;67.70;;;;;;4043623;29;19915;-85
2023/04/11 09:57:47;;;;;;;;;;;10.00;67.70;;;;;;4073342;29;19914;-84
2023/04/11 09:59:48;;;;;;;;;;;10.00;67.90;;;;;;4059323;29;19919;-85
2023/04/11 10:01:49;;;;;;;;;;;9.90;68.00;;;;;;4065140;29;19919;-85
2023/04/11 10:03:51;;;;;;;;;;;10.00;68.20;;;;;;4061099;29;19966;-84
2023/04/11 10:05:53;;;;;;;;;;;10.00;68.60;;;;;;4062700;29;19921;-84
2023/04/11 10:07:56;;;;;;;;;;;9.90;68.60;;;;;;4059595;29;19961;-84
2023/04/11 10:09:57;;;;;;;;;;;9.90;68.60;;;;;;4073450;29;20432;-84
2023/04/11 10:20:44;;;;;;;;;;;10.00;68.90;;;;;;4071999;29;19918;-85
2023/04/11 10:25:49;;;;;;;;;;;10.00;68.80;;;;;;4049910;29;20010;-85
2023/04/11 10:27:59;;;;;;;;;;;10.10;68.70;;;;;;4041909;29;19986;-83
2023/04/11 10:30:00;;;;;;;;;;;10.10;68.60;;;;;;4038785;29;19930;-85
2023/04/11 10:32:10;;;;;;;;;;;10.10;68.80;;;;;;4056109;29;19919;-85
2023/04/11 10:37:08;;;;;;;;;;;10.10;68.40;;;;;;4053393;29;20304;-85
2023/04/11 10:39:09;;;;;;;;;;;10.10;68.60;;;;;;4042633;29;20340;-84
2023/04/11 10:41:24;;;;;;;;;;;10.10;68.40;;;;;;4053097;29;20346;-84
2023/04/11 10:43:24;;;;;;;;;;;10.10;68.40;;;;;;4060058;29;19926;-85
2023/04/11 10:45:26;;;;;;;;;;;10.10;68.40;;;;;;4057851;29;19915;-84
2023/04/11 10:47:27;;;;;;;;;;;10.10;68.30;;;;;;4059919;29;19915;-84
2023/04/11 10:49:31;;;;;;;;;;;10.10;68.40;;;;;;4044261;29;19915;-84
2023/04/11 10:51:32;;;;;;;;;;;10.10;68.40;;;;;;4057556;29;20649;-84
2023/04/11 10:53:35;;;;;;;;;;;10.10;68.40;;;;;;4041496;29;20432;-84
2023/04/11 10:55:46;;;;;;;;;;;10.00;68.30;;;;;;4043370;29;20498;-85
2023/04/11 10:58:06;;;;;;;;;;;10.10;68.50;;;;;;4056263;29;19953;-85
2023/04/11 11:00:12;;;;;;;;;;;10.10;68.50;;;;;;4059664;29;19958;-85
2023/04/11 11:02:13;;;;;;;;;;;10.10;68.80;;;;;;4054473;29;19919;-86
2023/04/11 11:04:15;;;;;;;;;;;10.20;69.10;;;;;;4039341;29;19941;-85
2023/04/11 11:06:16;;;;;;;;;;;10.20;68.90;;;;;;4073721;29;19918;-86
2023/04/11 11:08:26;;;;;;;;;;;10.20;68.60;;;;;;4044023;29;20026;-86
2023/04/11 11:10:45;;;;;;;;;;;10.20;68.20;;;;;;4048137;29;19915;-84
2023/04/11 11:12:52;;;;;;;;;;;10.20;67.50;;;;;;4059271;29;19915;-84
2023/04/11 11:14:54;;;;;;;;;;;10.20;63.00;;;;;;4067505;29;19910;-85
2023/04/11 11:16:54;;;;;;;;;;;10.10;59.60;;;;;;4034619;29;20176;-86
2023/04/11 11:18:57;;;;;;;;;;;10.00;59.10;;;;;;4056671;29;19992;-85
2023/04/11 11:20:58;;;;;;;;;;;10.00;59.20;;;;;;4054822;29;19918;-85
2023/04/11 11:22:59;;;;;;;;;;;9.90;59.40;;;;;;4059278;29;19936;-84
2023/04/11 11:25:07;;;;;;;;;;;9.90;59.30;;;;;;4055981;29;20010;-85
2023/04/11 11:27:17;;;;;;;;;;;9.90;60.20;;;;;;4060455;29;20024;-85
2023/04/11 11:29:28;;;;;;;;;;;9.80;60.50;;;;;;4060194;29;20084;-84
2023/04/11 11:31:42;;;;;;;;;;;9.80;62.30;;;;;;4072046;28;19942;-87
2023/04/11 11:33:42;;;;;;;;;;;9.80;65.30;;;;;;4053618;29;19918;-85
2023/04/11 11:35:49;;;;;;;;;;;9.80;65.80;;;;;;4049294;29;19975;-85
2023/04/11 11:37:51;;;;;;;;;;;9.80;65.70;;;;;;4068890;29;19946;-86
2023/04/11 11:39:52;;;;;;;;;;;9.90;66.30;;;;;;4060431;29;20406;-85
2023/04/11 11:41:54;;;;;;;;;;;9.80;65.70;;;;;;4086495;29;21385;-86
2023/04/11 11:43:55;;;;;;;;;;;9.70;63.70;;;;;;4090799;29;19903;-85
2023/04/11 11:46:07;;;;;;;;;;;9.60;62.60;;;;;;4075135;29;19914;-85
2023/04/11 11:48:17;;;;;;;;;;;9.60;63.00;;;;;;4082196;29;19922;-87
2023/04/11 11:50:28;;;;;;;;;;;9.50;62.60;;;;;;4055593;29;19918;-86
2023/04/11 11:52:33;;;;;;;;;;;9.30;62.10;;;;;;4044331;29;19912;-86
2023/04/11 11:54:41;;;;;;;;;;;9.20;63.00;;;;;;4060256;29;20366;-85
2023/04/11 11:56:48;;;;;;;;;;;9.10;64.00;;;;;;4063084;29;20044;-86
2023/04/11 11:58:49;;;;;;;;;;;9.00;64.10;;;;;;4060589;29;19922;-88
2023/04/11 12:00:50;;;;;;;;;;;9.00;64.30;;;;;;4070219;29;19963;-85
2023/04/11 12:02:51;;;;;;;;;;;8.90;64.60;;;;;;4069987;29;19915;-86
2023/04/11 12:04:59;;;;;;;;;;;8.80;65.30;;;;;;4057777;29;19929;-87
2023/04/11 12:07:06;;;;;;;;;;;8.80;65.30;;;;;;4055626;29;20547;-86
2023/04/11 12:09:08;;;;;;;;;;;8.80;65.80;;;;;;4056595;29;19911;-85
2023/04/11 12:11:13;;;;;;;;;;;8.80;67.00;;;;;;4049809;29;19923;-85
2023/04/11 12:13:18;;;;;;;;;;;8.80;67.20;;;;;;4056553;29;19919;-86
2023/04/11 12:15:20;;;;;;;;;;;8.80;68.10;;;;;;4066418;29;20286;-86
2023/04/11 12:17:20;;;;;;;;;;;8.80;67.90;;;;;;4053721;29;19916;-86
2023/04/11 12:19:22;;;;;;;;;;;8.80;68.00;;;;;;4055652;29;20051;-86
2023/04/11 12:21:23;;;;;;;;;;;8.90;68.60;;;;;;4059322;29;19934;-86
2023/04/11 12:23:23;;;;;;;;;;;8.90;68.70;;;;;;4056452;29;19915;-86
2023/04/11 12:25:26;;;;;;;;;;;8.90;69.10;;;;;;4058179;29;19923;-87
2023/04/11 12:27:27;;;;;;;;;;;9.00;70.10;;;;;;4084287;28;19914;-86
2023/04/11 12:29:27;;;;;;;;;;;8.90;69.20;;;;;;4062773;29;19922;-86
2023/04/11 12:31:28;;;;;;;;;;;9.00;69.10;;;;;;4069669;29;19919;-85
2023/04/11 12:33:29;;;;;;;;;;;9.00;69.30;;;;;;4059765;29;19950;-86
2023/04/11 12:35:30;;;;;;;;;;;9.00;69.00;;;;;;4058676;29;19976;-86
2023/04/11 12:37:30;;;;;;;;;;;9.00;69.10;;;;;;4044418;29;19919;-86
2023/04/11 12:39:31;;;;;;;;;;;9.10;68.90;;;;;;4073351;29;20424;-87
2023/04/11 12:41:32;;;;;;;;;;;9.10;68.90;;;;;;4058760;29;19911;-86
2023/04/11 12:43:32;;;;;;;;;;;9.10;68.80;;;;;;4041635;29;20393;-86
2023/04/11 12:45:33;;;;;;;;;;;9.10;68.80;;;;;;4060725;29;19923;-86
2023/04/11 12:47:34;;;;;;;;;;;9.20;68.80;;;;;;4071841;29;19918;-86
2023/04/11 12:49:35;;;;;;;;;;;9.20;68.50;;;;;;4051374;29;20129;-87
2023/04/11 12:51:36;;;;;;;;;;;9.20;68.30;;;;;;4060490;29;20281;-85
2023/04/11 12:53:36;;;;;;;;;;;9.20;67.70;;;;;;4076560;29;19915;-86
2023/04/11 12:55:37;;;;;;;;;;;9.20;67.50;;;;;;4059789;29;19989;-86
2023/04/11 12:57:37;;;;;;;;;;;9.20;67.50;;;;;;4057522;29;19915;-86
2023/04/11 12:59:38;;;;;;;;;;;9.20;67.60;;;;;;4071904;29;19919;-86
2023/04/11 13:01:39;;;;;;;;;;;9.20;67.40;;;;;;4060515;29;21522;-85